Main page
METAR-TAF:

METAR-TAF

Airports :

Avilés, Spain

Asturias Airport

latitude: 43-33N, longitude: 006-02W, elevation: 127 m

Current weather observation

The report was made 24 minutes ago, at 03:30 UTC
Wind 1 kt from the South/Southeast
Temperature 12°C
Humidity 94%
Pressure 1022 hPa
Visibility: 9000 m

METAR: LEAS 200330Z AUTO 16001KT 9000 NCD 12/11 Q1022

Time: 05:54 (03:54 UTC)

Forecast

The report was made 1 hour and 54 minutes ago, at 02:00 UTC
Forecast valid from 20 at 03 UTC to 21 at 03 UTC
Wind 6 kt from the East
Visibility 10 km or more
Few clouds at a height of 2500 ft
Probability 30% :
Temporary
from 20 at 03 UTC to 20 at 09 UTC
Visibility: 1500 m
Broken clouds at a height of 800 ft
patches of fog

TAF: LEAS 200200Z 2003/2103 08006KT 9999 FEW025 TX20/2014Z TN12/2007Z PROB30 TEMPO 2003/2009 1500 BCFG BKN008

Weather observations and forecasts of more than 4000 airports (METAR and TAF reports).

The available stations are represented by yellow and red dots on the map.

Hover mouse over dot to see the name of the station.

Then click to see weather observations and forecasts.

To change the map : click on the green buttons with a black cross to zoom in, on the green button with a dash to zoom out, or on the green arrows for adjacent maps.


METAR-TAF: